createdAt,value
2019-02-08T00:02:16.737Z,100834.39
2019-02-08T00:08:22.722Z,100844.05
2019-02-08T00:14:28.703Z,100842.72
2019-02-08T00:20:34.744Z,100844.48
2019-02-08T00:26:40.538Z,100840.97
2019-02-08T00:32:46.772Z,100841.41
2019-02-08T00:38:52.752Z,100850.98
2019-02-08T00:44:58.648Z,100852.75
2019-02-08T00:51:04.519Z,100854.48
2019-02-08T00:57:10.372Z,100836.98
2019-02-08T01:03:16.257Z,100840.91
2019-02-08T01:09:22.025Z,100852.73
2019-02-08T01:15:29.349Z,100837.41
2019-02-08T01:21:35.270Z,100842.20
2019-02-08T01:27:41.047Z,100840.86
2019-02-08T01:33:46.930Z,100841.67
2019-02-08T01:39:52.910Z,100833.34
2019-02-08T01:45:58.738Z,100833.20
2019-02-08T01:52:04.542Z,100838.27
2019-02-08T01:58:10.384Z,100829.92
2019-02-08T02:04:16.242Z,100834.70
2019-02-08T02:10:29.347Z,100831.06
2019-02-08T02:16:35.421Z,100834.38
2019-02-08T02:22:41.397Z,100825.62
2019-02-08T02:28:47.222Z,100834.92
2019-02-08T02:34:53.217Z,100832.47
2019-02-08T02:40:59.157Z,100837.77
2019-02-08T02:47:04.917Z,100835.65
2019-02-08T02:53:11.213Z,100828.61
2019-02-08T02:59:19.159Z,100821.59
2019-02-08T03:05:25.189Z,100822.89
2019-02-08T03:11:30.983Z,100826.33
2019-02-08T03:17:36.865Z,100818.94
2019-02-08T03:23:42.954Z,100813.64
2019-02-08T03:29:49.253Z,100819.34
2019-02-08T03:35:56.195Z,100816.34
2019-02-08T03:42:02.519Z,100806.77
2019-02-08T03:48:09.019Z,100803.32
2019-02-08T03:54:21.004Z,100788.08
2019-02-08T04:00:34.955Z,100783.31
2019-02-08T04:06:41.197Z,100785.95
2019-02-08T04:12:47.009Z,100783.80
2019-02-08T04:18:54.756Z,100772.91
2019-02-08T04:25:00.802Z,100768.54
2019-02-08T04:31:07.064Z,100765.06
2019-02-08T04:37:13.261Z,100772.46
2019-02-08T04:43:19.278Z,100757.23
2019-02-08T04:49:25.196Z,100767.31
2019-02-08T04:55:31.241Z,100771.66
2019-02-08T05:01:37.097Z,100776.91
2019-02-08T05:07:42.987Z,100770.80
2019-02-08T05:13:49.423Z,100766.81
2019-02-08T05:19:55.305Z,100760.71
2019-02-08T05:26:01.285Z,100751.92
2019-02-08T05:32:07.282Z,100750.64
2019-02-08T05:38:13.429Z,100742.31
2019-02-08T05:44:19.461Z,100750.16
2019-02-08T05:50:27.251Z,100733.99
2019-02-08T05:56:33.093Z,100737.96
2019-02-08T06:02:39.089Z,100734.52
2019-02-08T06:08:45.348Z,100722.70
2019-02-08T06:14:51.165Z,100718.80
2019-02-08T06:20:57.066Z,100717.48
2019-02-08T06:27:02.932Z,100719.69
2019-02-08T06:33:09.488Z,100718.85
2019-02-08T06:39:15.340Z,100723.26
2019-02-08T06:45:23.305Z,100726.78
2019-02-08T06:51:29.384Z,100725.48
2019-02-08T06:57:43.929Z,100726.78
2019-02-08T07:04:22.495Z,100727.20
2019-02-08T07:10:44.422Z,100733.83
2019-02-08T07:17:08.185Z,100737.79
2019-02-08T07:23:31.656Z,100730.77
2019-02-08T07:29:53.313Z,100725.10
2019-02-08T07:36:10.078Z,100723.38
2019-02-08T07:42:37.658Z,100712.08
2019-02-08T07:49:04.348Z,100714.74
2019-02-08T07:55:42.248Z,100720.88
2019-02-08T08:01:59.438Z,100719.55
2019-02-08T08:08:18.415Z,100724.41
2019-02-08T08:14:46.614Z,100721.34
2019-02-08T08:21:11.577Z,100714.85
2019-02-08T08:27:32.215Z,100725.81
2019-02-08T08:33:49.723Z,100719.28
2019-02-08T08:40:57.268Z,100721.48
2019-02-08T08:48:10.989Z,100708.81
2019-02-08T08:55:19.769Z,100717.59
2019-02-08T09:02:20.777Z,100716.73
2019-02-08T09:09:33.415Z,100704.05
2019-02-08T09:16:33.076Z,100700.99
2019-02-08T09:23:27.627Z,100698.83
2019-02-08T09:30:15.099Z,100694.00
2019-02-08T09:37:35.345Z,100678.67
2019-02-08T09:44:46.277Z,100684.86
2019-02-08T09:51:36.444Z,100668.20
2019-02-08T09:58:43.136Z,100676.11
2019-02-08T10:06:00.188Z,100658.58
2019-02-08T10:13:22.776Z,100647.16
2019-02-08T10:20:40.424Z,100645.84
2019-02-08T10:27:42.361Z,100647.58
2019-02-08T10:35:02.572Z,100634.01
2019-02-08T10:42:20.421Z,100648.45
2019-02-08T10:49:30.004Z,100628.75
2019-02-08T10:56:59.310Z,100636.63
2019-02-08T11:04:07.396Z,100616.45
2019-02-08T11:11:19.315Z,100598.89
2019-02-08T11:18:24.054Z,100589.64
2019-02-08T11:24:30.302Z,100582.14
2019-02-08T11:30:36.146Z,100572.45
2019-02-08T11:36:42.268Z,100565.02
2019-02-08T11:42:48.157Z,100550.08
2019-02-08T11:48:54.134Z,100545.25
2019-02-08T11:54:59.975Z,100543.45
2019-02-08T12:01:06.514Z,100537.77
2019-02-08T12:07:12.755Z,100522.00
2019-02-08T12:13:19.062Z,100512.31
2019-02-08T12:19:26.142Z,100500.88
2019-02-08T12:25:32.158Z,100491.64
2019-02-08T12:31:37.949Z,100491.19
2019-02-08T12:37:43.836Z,100474.98
2019-02-08T12:43:49.643Z,100468.81
2019-02-08T12:49:55.557Z,100460.08
2019-02-08T12:56:01.399Z,100454.37
2019-02-08T13:02:07.580Z,100443.87
2019-02-08T13:08:13.615Z,100438.98
2019-02-08T13:14:19.687Z,100441.50
2019-02-08T13:20:25.958Z,100435.32
2019-02-08T13:26:34.666Z,100425.20
2019-02-08T13:32:40.821Z,100409.02
2019-02-08T13:38:46.595Z,100394.09
2019-02-08T13:44:52.497Z,100390.59
2019-02-08T13:50:58.435Z,100385.73
2019-02-08T13:57:14.209Z,100371.21
2019-02-08T14:03:20.207Z,100361.99
2019-02-08T14:09:26.073Z,100355.45
2019-02-08T14:15:32.115Z,100346.33
2019-02-08T14:21:38.018Z,100330.59
2019-02-08T14:27:44.289Z,100317.02
2019-02-08T14:33:50.183Z,100308.67
2019-02-08T14:39:56.116Z,100306.08
2019-02-08T14:46:02.203Z,100299.14
2019-02-08T14:52:08.221Z,100289.48
2019-02-08T14:58:14.317Z,100303.99
2019-02-08T15:04:20.024Z,100290.88
2019-02-08T15:10:32.307Z,100280.40
2019-02-08T15:16:38.514Z,100286.48
2019-02-08T15:22:44.484Z,100284.76
2019-02-08T15:28:50.450Z,100268.97
2019-02-08T15:34:56.251Z,100264.12
2019-02-08T15:41:02.225Z,100260.66
2019-02-08T15:47:08.363Z,100255.41
2019-02-08T15:53:15.728Z,100229.09
2019-02-08T15:59:21.527Z,100223.37
2019-02-08T16:05:28.043Z,100219.89
2019-02-08T16:11:34.183Z,100205.91
2019-02-08T16:17:40.329Z,100214.16
2019-02-08T16:23:46.358Z,100208.84
2019-02-08T16:29:52.474Z,100198.73
2019-02-08T16:35:58.442Z,100194.37
2019-02-08T16:42:04.507Z,100178.59
2019-02-08T16:48:11.288Z,100158.84
2019-02-08T16:54:18.093Z,100148.31
2019-02-08T17:00:28.120Z,100138.66
2019-02-08T17:06:34.247Z,100135.97
2019-02-08T17:12:40.429Z,100125.03
2019-02-08T17:18:46.649Z,100121.95
2019-02-08T17:24:52.741Z,100119.37
2019-02-08T17:30:58.697Z,100110.15
2019-02-08T17:37:04.550Z,100114.52
2019-02-08T17:43:10.400Z,100116.73
2019-02-08T17:49:16.334Z,100097.45
2019-02-08T17:55:23.991Z,100086.92
2019-02-08T18:01:30.029Z,100084.71
2019-02-08T18:07:37.408Z,100078.13
2019-02-08T18:13:43.414Z,100071.09
2019-02-08T18:19:49.372Z,100059.70
2019-02-08T18:25:55.874Z,100061.88
2019-02-08T18:32:01.855Z,100058.38
2019-02-08T18:38:08.129Z,100051.76
2019-02-08T18:44:13.961Z,100043.84
2019-02-08T18:50:26.340Z,100033.77
2019-02-08T18:56:32.469Z,100013.17
2019-02-08T19:02:38.483Z,99991.66
2019-02-08T19:08:44.239Z,99986.81
2019-02-08T19:14:50.506Z,99979.81
2019-02-08T19:20:56.623Z,99981.06
2019-02-08T19:27:02.620Z,99948.64
2019-02-08T19:33:08.763Z,99924.55
2019-02-08T19:39:14.537Z,99928.56
2019-02-08T19:45:23.061Z,99910.07
2019-02-08T19:51:29.190Z,99903.02
2019-02-08T19:57:35.049Z,99908.68
2019-02-08T20:03:40.810Z,99897.70
2019-02-08T20:09:46.612Z,99882.31
2019-02-08T20:15:52.452Z,99871.44
2019-02-08T20:21:58.365Z,99860.91
2019-02-08T20:28:04.397Z,99854.80
2019-02-08T20:34:10.288Z,99841.22
2019-02-08T20:40:19.975Z,99829.44
2019-02-08T20:46:25.873Z,99811.93
2019-02-08T20:52:31.844Z,99804.45
2019-02-08T20:58:38.096Z,99796.17
2019-02-08T21:04:43.950Z,99787.05
2019-02-08T21:10:50.076Z,99781.84
2019-02-08T21:16:55.922Z,99766.84
2019-02-08T21:23:01.913Z,99762.02
2019-02-08T21:29:07.793Z,99761.56
2019-02-08T21:35:14.237Z,99761.58
2019-02-08T21:41:20.047Z,99747.13
2019-02-08T21:47:25.767Z,99741.36
2019-02-08T21:53:31.594Z,99745.41
2019-02-08T21:59:37.554Z,99737.49
2019-02-08T22:05:53.520Z,99744.09
2019-02-08T22:11:59.338Z,99737.90
2019-02-08T22:18:05.885Z,99726.52
2019-02-08T22:24:11.756Z,99721.27
2019-02-08T22:30:20.841Z,99712.08
2019-02-08T22:36:26.649Z,99707.38
2019-02-08T22:42:32.404Z,99690.52
2019-02-08T22:48:38.260Z,99692.75
2019-02-08T22:54:44.129Z,99683.67
2019-02-08T23:01:28.811Z,99676.25
2019-02-08T23:07:34.570Z,99681.12
2019-02-08T23:13:40.571Z,99672.62
2019-02-08T23:19:46.665Z,99652.91
2019-02-08T23:25:52.727Z,99657.86
2019-02-08T23:31:58.786Z,99646.57
2019-02-08T23:38:05.194Z,99648.85
2019-02-08T23:44:11.207Z,99639.66
2019-02-08T23:50:17.433Z,99623.17
2019-02-08T23:56:23.262Z,99621.16
